Time;durP1;ratioP1;P1;durP2;ratioP2;P2;SDS_P1;SDS_P2;PMS_P1;PMS_P2;Temp;Humidity;BMP_temperature;BMP_pressure;BME280_temperature;BME280_humidity;BME280_pressure;Samples;Min_cycle;Max_cycle;Signal;HPM_P1;HPM_P2
2023/06/18 00:00:23;;;;;;;13.65;12.30;;;16.20;99.90;;;;;;4942873;28;20086;-64
2023/06/18 00:02:51;;;;;;;15.13;13.57;;;16.20;99.90;;;;;;4939835;28;20460;-67
2023/06/18 00:05:18;;;;;;;13.77;12.05;;;16.10;99.90;;;;;;4944166;28;20046;-65
2023/06/18 00:07:45;;;;;;;15.25;13.57;;;16.10;99.90;;;;;;4943323;28;20043;-67
2023/06/18 00:10:12;;;;;;;13.23;11.98;;;16.10;99.90;;;;;;4944858;28;20500;-65
2023/06/18 00:12:38;;;;;;;15.45;14.10;;;16.10;99.90;;;;;;4944223;28;20070;-65
2023/06/18 00:15:06;;;;;;;15.70;13.75;;;16.10;99.90;;;;;;4942381;28;20043;-65
2023/06/18 00:17:33;;;;;;;16.13;14.15;;;16.10;99.90;;;;;;4946907;28;20047;-66
2023/06/18 00:20:00;;;;;;;16.30;14.75;;;16.10;99.90;;;;;;4941128;28;20047;-66
2023/06/18 00:22:27;;;;;;;19.83;14.40;;;16.10;99.90;;;;;;4939588;28;20057;-65
2023/06/18 00:24:54;;;;;;;15.43;13.93;;;16.10;99.90;;;;;;4943511;28;20054;-66
2023/06/18 00:27:21;;;;;;;16.15;14.68;;;16.00;99.90;;;;;;4942563;28;20561;-66
2023/06/18 00:29:48;;;;;;;16.77;14.98;;;16.10;99.90;;;;;;4957809;28;20044;-65
2023/06/18 00:32:15;;;;;;;15.68;14.05;;;16.00;99.90;;;;;;4938565;28;20059;-65
2023/06/18 00:34:42;;;;;;;17.10;15.45;;;16.00;99.90;;;;;;4938587;28;20410;-66
2023/06/18 00:37:10;;;;;;;14.18;12.73;;;16.00;99.90;;;;;;4943429;28;20406;-65
2023/06/18 00:39:38;;;;;;;14.32;12.93;;;16.00;99.90;;;;;;4941098;28;20162;-67
2023/06/18 00:42:07;;;;;;;14.20;12.77;;;16.00;99.90;;;;;;4936483;28;20067;-65
2023/06/18 00:44:35;;;;;;;15.32;12.57;;;16.00;99.90;;;;;;4939522;28;20043;-66
2023/06/18 00:47:02;;;;;;;14.77;13.25;;;15.90;99.90;;;;;;4938215;28;20466;-67
2023/06/18 00:49:29;;;;;;;15.48;14.00;;;15.90;99.90;;;;;;4938367;28;20065;-64
2023/06/18 00:51:58;;;;;;;14.38;13.07;;;16.00;99.90;;;;;;4943680;28;20047;-64
2023/06/18 00:54:30;;;;;;;14.23;12.75;;;16.00;99.90;;;;;;4937765;28;20059;-65
2023/06/18 00:56:59;;;;;;;15.63;14.02;;;16.00;99.90;;;;;;4948834;28;20485;-65
2023/06/18 00:59:27;;;;;;;14.05;12.77;;;16.00;99.90;;;;;;4940108;28;20064;-65
2023/06/18 01:01:56;;;;;;;15.85;14.32;;;16.00;99.90;;;;;;4953786;28;20074;-64
2023/06/18 01:04:27;;;;;;;14.40;12.82;;;16.00;99.90;;;;;;4956206;28;20881;-64
2023/06/18 01:06:55;;;;;;;;;;;15.90;99.90;;;;;;4952776;28;20090;-64
2023/06/18 01:09:26;;;;;;;16.17;14.52;;;16.00;99.90;;;;;;4944308;28;20053;-64
2023/06/18 01:11:54;;;;;;;16.13;14.63;;;16.00;99.90;;;;;;4944519;28;20058;-65
2023/06/18 01:14:22;;;;;;;15.45;14.05;;;15.90;99.90;;;;;;4945004;28;20051;-67
2023/06/18 01:16:51;;;;;;;14.15;12.75;;;15.90;99.90;;;;;;4943318;28;20071;-64
2023/06/18 01:19:38;;;;;;;17.08;14.18;;;15.90;99.90;;;;;;4940223;28;20043;-64
2023/06/18 01:22:18;;;;;;;15.23;13.43;;;15.90;99.90;;;;;;4942082;28;20054;-66
2023/06/18 01:24:50;;;;;;;15.60;12.85;;;15.90;99.90;;;;;;4940913;28;20039;-65
2023/06/18 01:27:21;;;;;;;15.82;14.32;;;16.00;99.90;;;;;;4940221;28;20498;-64
2023/06/18 01:29:53;;;;;;;14.50;13.05;;;15.90;99.90;;;;;;4943353;28;20035;-64
2023/06/18 01:32:21;;;;;;;17.05;15.50;;;15.90;99.90;;;;;;4935860;28;20111;-65
2023/06/18 01:34:48;;;;;;;18.92;14.27;;;15.90;99.90;;;;;;4957184;28;20055;-65
2023/06/18 01:37:35;;;;;;;16.83;14.55;;;15.90;99.90;;;;;;4937419;28;20098;-64
2023/06/18 01:40:21;;;;;;;14.20;12.90;;;16.00;99.90;;;;;;4940350;28;20074;-63
2023/06/18 01:42:57;;;;;;;14.88;13.48;;;16.00;99.90;;;;;;4943772;28;20242;-65
2023/06/18 01:45:33;;;;;;;14.90;13.48;;;16.00;99.90;;;;;;4942368;28;20699;-64
2023/06/18 01:48:04;;;;;;;13.45;12.25;;;16.00;99.90;;;;;;4939381;28;20118;-65
2023/06/18 01:50:34;;;;;;;14.90;12.48;;;15.90;99.90;;;;;;4952454;28;20167;-65
2023/06/18 01:53:02;;;;;;;;;;;16.00;99.90;;;;;;4940566;28;20075;-65
2023/06/18 01:55:33;;;;;;;15.38;13.98;;;16.00;99.90;;;;;;4943060;28;20028;-65
2023/06/18 01:58:00;;;;;;;;;;;16.00;99.90;;;;;;4941063;28;20051;-65
2023/06/18 02:00:27;;;;;;;15.45;14.02;;;16.00;99.90;;;;;;4955792;28;19994;-66
2023/06/18 02:02:55;;;;;;;15.18;13.30;;;16.00;99.90;;;;;;4942677;28;20069;-66
2023/06/18 02:05:22;;;;;;;13.75;12.43;;;16.00;99.90;;;;;;4942385;28;20039;-64
2023/06/18 02:07:49;;;;;;;15.07;13.48;;;16.00;99.90;;;;;;4958672;28;20051;-64
2023/06/18 02:10:16;;;;;;;14.10;12.73;;;16.00;99.90;;;;;;4943275;28;20130;-65
2023/06/18 02:12:43;;;;;;;15.10;13.77;;;16.00;99.90;;;;;;4941780;28;20087;-66
2023/06/18 02:15:10;;;;;;;14.02;12.75;;;16.00;99.90;;;;;;4937739;28;20632;-65
2023/06/18 02:17:37;;;;;;;15.85;14.45;;;16.00;99.90;;;;;;4941419;28;20079;-64
2023/06/18 02:20:06;;;;;;;14.52;13.02;;;16.00;99.90;;;;;;4940961;28;20074;-65
2023/06/18 02:22:33;;;;;;;12.80;11.63;;;16.00;99.90;;;;;;4940253;28;20505;-64
2023/06/18 02:25:01;;;;;;;14.20;12.77;;;16.00;99.90;;;;;;4941709;28;20631;-65
2023/06/18 02:27:28;;;;;;;13.70;12.43;;;16.00;99.90;;;;;;4940796;28;20086;-66
2023/06/18 02:29:55;;;;;;;13.93;12.63;;;16.00;99.90;;;;;;4940209;28;20051;-65
2023/06/18 02:32:22;;;;;;;13.05;11.80;;;16.00;99.90;;;;;;4940889;28;20735;-64
2023/06/18 02:34:49;;;;;;;12.45;11.35;;;16.00;99.90;;;;;;4937807;28;20051;-65
2023/06/18 02:37:16;;;;;;;12.95;11.63;;;16.00;99.90;;;;;;4944320;28;20138;-64
2023/06/18 02:39:43;;;;;;;13.60;12.30;;;16.00;99.90;;;;;;4955648;28;20755;-68
2023/06/18 02:42:10;;;;;;;14.38;12.95;;;16.00;99.90;;;;;;4945223;28;20046;-64
2023/06/18 02:44:39;;;;;;;14.20;12.05;;;16.00;99.90;;;;;;4938847;28;20055;-65
2023/06/18 02:47:07;;;;;;;16.30;12.85;;;15.90;99.90;;;;;;4953249;28;21505;-65
2023/06/18 02:49:35;;;;;;;15.00;13.50;;;15.90;99.90;;;;;;4955648;28;20051;-66
2023/06/18 02:52:02;;;;;;;14.27;12.93;;;15.90;99.90;;;;;;4941196;28;20051;-66
2023/06/18 02:54:29;;;;;;;17.05;13.50;;;15.90;99.90;;;;;;4939579;28;20043;-65
2023/06/18 02:56:56;;;;;;;13.57;12.27;;;15.90;99.90;;;;;;4954517;28;20054;-65
2023/06/18 02:59:23;;;;;;;12.45;11.25;;;15.90;99.90;;;;;;4936942;28;20119;-66
2023/06/18 03:01:53;;;;;;;13.05;11.85;;;15.90;99.90;;;;;;4938631;28;20035;-66
2023/06/18 03:04:20;;;;;;;14.43;13.18;;;16.00;99.90;;;;;;4950435;28;20122;-64
2023/06/18 03:06:47;;;;;;;11.75;10.65;;;15.90;99.90;;;;;;4952612;28;20055;-65
2023/06/18 03:09:15;;;;;;;12.30;11.00;;;15.90;99.90;;;;;;4958557;28;20081;-65
2023/06/18 03:11:42;;;;;;;14.43;13.13;;;15.90;99.90;;;;;;4938975;28;20106;-64
2023/06/18 03:14:10;;;;;;;13.98;12.65;;;15.90;99.90;;;;;;4940539;28;20138;-64
2023/06/18 03:16:37;;;;;;;13.48;12.27;;;15.90;99.90;;;;;;4933689;28;20054;-65
2023/06/18 03:19:04;;;;;;;16.35;14.85;;;15.90;99.90;;;;;;4933642;28;20047;-64
2023/06/18 03:21:33;;;;;;;14.50;13.02;;;15.90;99.90;;;;;;4954552;28;20141;-67
2023/06/18 03:24:02;;;;;;;12.88;11.75;;;15.90;99.90;;;;;;4938247;28;20074;-65
2023/06/18 03:26:30;;;;;;;13.50;12.20;;;15.90;99.90;;;;;;4933015;28;20058;-65
2023/06/18 03:28:58;;;;;;;13.95;12.75;;;15.90;99.90;;;;;;4936153;28;20114;-65
2023/06/18 03:31:26;;;;;;;15.35;13.38;;;15.90;99.90;;;;;;4952500;28;20086;-65
2023/06/18 03:33:54;;;;;;;13.10;11.88;;;15.90;99.90;;;;;;4934769;28;20139;-66
2023/06/18 03:36:22;;;;;;;15.18;13.60;;;15.90;99.90;;;;;;4949081;28;20051;-65
2023/06/18 03:38:50;;;;;;;12.73;11.57;;;15.90;99.90;;;;;;4938245;28;20052;-65
2023/06/18 03:41:16;;;;;;;14.48;13.07;;;15.90;99.90;;;;;;4943945;28;20051;-65
2023/06/18 03:43:43;;;;;;;16.50;12.90;;;15.90;99.90;;;;;;4936743;28;20044;-66
2023/06/18 03:46:10;;;;;;;15.48;12.30;;;15.90;99.90;;;;;;4956309;28;20043;-66
2023/06/18 03:48:39;;;;;;;17.23;15.20;;;16.00;99.90;;;;;;4941946;28;20051;-65
2023/06/18 03:51:06;;;;;;;12.93;11.45;;;16.00;99.90;;;;;;4940953;28;20043;-65
2023/06/18 03:53:37;;;;;;;15.93;14.38;;;16.00;99.90;;;;;;4956463;28;20055;-65
2023/06/18 03:56:05;;;;;;;15.98;12.82;;;16.00;99.90;;;;;;4959368;28;20110;-65
2023/06/18 03:58:34;;;;;;;13.15;11.85;;;16.00;99.90;;;;;;4960020;28;20055;-67
2023/06/18 04:01:00;;;;;;;14.30;12.77;;;16.00;99.90;;;;;;4940589;28;20043;-65
2023/06/18 04:03:27;;;;;;;12.65;11.52;;;16.00;99.90;;;;;;4958251;28;20063;-65
2023/06/18 04:05:55;;;;;;;12.32;11.07;;;16.10;99.90;;;;;;4941889;28;20060;-65
2023/06/18 04:08:21;;;;;;;14.35;12.95;;;16.10;99.90;;;;;;4942041;28;20501;-65
2023/06/18 04:10:48;;;;;;;13.60;12.23;;;16.20;99.90;;;;;;4958743;28;20821;-65
2023/06/18 04:13:17;;;;;;;12.20;11.05;;;16.20;99.90;;;;;;4946812;28;20545;-65
2023/06/18 04:15:45;;;;;;;14.35;12.88;;;16.20;99.90;;;;;;4938220;28;20621;-65
2023/06/18 04:18:14;;;;;;;13.82;12.55;;;16.30;99.90;;;;;;4943335;28;20047;-65
2023/06/18 04:20:41;;;;;;;14.07;12.75;;;16.20;99.90;;;;;;4940379;28;20098;-65
2023/06/18 04:23:09;;;;;;;16.27;12.80;;;16.20;99.90;;;;;;4945990;28;20416;-64
2023/06/18 04:25:36;;;;;;;19.35;12.13;;;16.20;99.90;;;;;;4940303;28;20066;-65
2023/06/18 04:28:03;;;;;;;13.15;11.82;;;16.30;99.90;;;;;;4942775;28;20432;-68
2023/06/18 04:30:30;;;;;;;14.10;11.95;;;16.30;99.90;;;;;;4942399;28;20159;-64
2023/06/18 04:32:58;;;;;;;12.43;11.23;;;16.30;99.90;;;;;;4941322;28;20039;-64
2023/06/18 04:35:25;;;;;;;12.73;11.50;;;16.30;99.90;;;;;;4954382;28;20179;-65
2023/06/18 04:37:52;;;;;;;14.15;11.10;;;16.30;99.90;;;;;;4942726;28;20707;-65
2023/06/18 04:40:19;;;;;;;11.25;10.15;;;16.30;99.90;;;;;;4958638;28;20044;-67
2023/06/18 04:42:47;;;;;;;13.95;11.15;;;16.30;99.90;;;;;;4941603;28;20083;-64
2023/06/18 04:45:21;;;;;;;18.52;11.85;;;16.40;99.90;;;;;;4952348;28;20498;-66
2023/06/18 04:47:48;;;;;;;11.20;10.10;;;16.30;99.90;;;;;;4959527;28;20043;-65
2023/06/18 04:50:15;;;;;;;12.50;11.38;;;16.40;99.90;;;;;;4938753;28;20051;-64
2023/06/18 04:52:46;;;;;;;12.32;11.05;;;16.40;99.90;;;;;;4939437;28;20103;-66
2023/06/18 04:55:13;;;;;;;10.80;9.73;;;16.40;99.90;;;;;;4939232;28;20106;-65
2023/06/18 04:57:41;;;;;;;12.52;11.35;;;16.30;99.90;;;;;;4946259;28;20106;-65
2023/06/18 05:00:09;;;;;;;11.55;10.32;;;16.40;99.90;;;;;;4941772;28;20125;-65
2023/06/18 05:02:39;;;;;;;12.57;10.90;;;16.40;99.90;;;;;;4958429;28;20099;-65
2023/06/18 05:05:06;;;;;;;11.90;10.70;;;16.40;99.90;;;;;;4942427;28;20039;-65
2023/06/18 05:07:34;;;;;;;11.13;9.88;;;16.50;99.90;;;;;;4957231;28;20490;-64
2023/06/18 05:10:03;;;;;;;13.55;10.77;;;16.50;99.90;;;;;;4936728;28;20182;-65
2023/06/18 05:12:31;;;;;;;14.85;11.13;;;16.60;99.90;;;;;;4940098;28;20055;-68
2023/06/18 05:14:58;;;;;;;13.20;10.38;;;16.70;99.90;;;;;;4957616;28;20077;-65
2023/06/18 05:17:25;;;;;;;12.05;10.85;;;16.80;99.90;;;;;;4941746;28;20161;-65
2023/06/18 05:19:53;;;;;;;10.60;9.52;;;16.80;99.90;;;;;;4955836;28;20047;-64
2023/06/18 05:22:21;;;;;;;10.40;9.40;;;16.90;99.90;;;;;;4952502;28;20480;-65
2023/06/18 05:24:48;;;;;;;10.32;9.35;;;16.90;99.90;;;;;;4937465;28;20046;-65
2023/06/18 05:27:15;;;;;;;11.43;10.40;;;16.90;99.90;;;;;;4943733;28;20056;-64
2023/06/18 05:29:42;;;;;;;10.45;9.55;;;17.00;99.90;;;;;;4947518;28;20090;-65
2023/06/18 05:32:09;;;;;;;10.43;9.38;;;17.00;99.90;;;;;;4937820;28;20138;-65
2023/06/18 05:34:40;;;;;;;11.25;10.15;;;17.00;99.90;;;;;;4955909;28;20055;-65
2023/06/18 05:37:07;;;;;;;11.32;9.57;;;17.00;99.90;;;;;;4951176;28;20063;-68
2023/06/18 05:39:34;;;;;;;11.38;10.27;;;17.00;99.90;;;;;;4955438;28;20115;-64
2023/06/18 05:42:01;;;;;;;10.07;9.18;;;17.10;99.90;;;;;;4952705;28;20105;-64
2023/06/18 05:44:29;;;;;;;12.95;9.77;;;17.10;99.90;;;;;;4942793;28;20599;-68
2023/06/18 05:46:56;;;;;;;10.30;9.27;;;17.20;99.90;;;;;;4955174;28;20051;-65
2023/06/18 05:49:23;;;;;;;10.38;9.30;;;17.40;99.90;;;;;;4940362;28;20055;-65
2023/06/18 05:51:50;;;;;;;11.38;10.27;;;17.50;99.90;;;;;;4958515;28;20137;-66
2023/06/18 05:54:17;;;;;;;10.88;9.25;;;17.60;99.90;;;;;;4941917;28;20055;-65
2023/06/18 05:56:44;;;;;;;13.90;9.40;;;17.60;99.90;;;;;;4941682;28;20047;-65
2023/06/18 05:59:11;;;;;;;10.80;9.75;;;17.60;99.90;;;;;;4941109;28;20102;-64
2023/06/18 06:01:44;;;;;;;10.57;9.48;;;17.70;99.90;;;;;;4953113;28;20394;-64
2023/06/18 06:04:12;;;;;;;9.52;8.65;;;17.70;99.90;;;;;;4939008;28;20094;-65
2023/06/18 06:06:39;;;;;;;9.70;8.73;;;17.70;99.90;;;;;;4940394;28;20441;-64
2023/06/18 06:09:07;;;;;;;10.43;9.43;;;17.80;99.90;;;;;;4937926;28;20056;-63
2023/06/18 06:11:37;;;;;;;9.93;8.35;;;17.80;99.90;;;;;;4934271;28;20043;-65
2023/06/18 06:14:09;;;;;;;13.10;9.98;;;17.90;99.90;;;;;;4938339;28;20047;-63
2023/06/18 06:16:36;;;;;;;13.57;9.95;;;18.00;99.90;;;;;;4938255;28;20166;-64
2023/06/18 06:19:03;;;;;;;9.43;8.32;;;18.10;99.90;;;;;;4960991;28;20151;-63
2023/06/18 06:21:33;;;;;;;10.73;9.27;;;18.10;99.90;;;;;;4938210;28;20141;-66
2023/06/18 06:24:01;;;;;;;10.15;9.02;;;18.20;99.90;;;;;;4945526;28;20052;-64
2023/06/18 06:26:28;;;;;;;12.90;9.95;;;18.30;99.90;;;;;;4944351;28;20533;-65
2023/06/18 06:28:56;;;;;;;11.80;10.57;;;18.40;99.90;;;;;;4958734;28;20422;-68
2023/06/18 06:31:23;;;;;;;11.75;10.63;;;18.50;99.90;;;;;;4953271;28;20047;-65
2023/06/18 06:33:51;;;;;;;12.57;11.27;;;18.50;99.90;;;;;;4955802;28;20142;-64
2023/06/18 06:36:19;;;;;;;10.13;9.02;;;18.60;99.90;;;;;;4934495;28;20051;-66
2023/06/18 06:38:47;;;;;;;9.90;9.00;;;18.60;99.90;;;;;;4942274;28;20074;-64
2023/06/18 06:41:14;;;;;;;12.88;9.15;;;18.60;99.90;;;;;;4956556;28;20059;-64
2023/06/18 06:43:42;;;;;;;11.35;9.85;;;18.50;99.90;;;;;;4956450;28;20051;-64
2023/06/18 06:46:19;;;;;;;10.82;9.88;;;18.50;99.90;;;;;;4936327;28;20677;-65
2023/06/18 06:49:07;;;;;;;12.57;11.20;;;18.50;99.90;;;;;;4944272;28;20125;-69
2023/06/18 06:51:56;;;;;;;12.65;11.07;;;18.60;99.90;;;;;;4938262;28;20610;-66
2023/06/18 06:54:23;;;;;;;12.88;11.10;;;18.60;99.90;;;;;;4942921;28;20067;-66
2023/06/18 06:56:50;;;;;;;17.70;11.02;;;18.60;99.90;;;;;;4956854;28;20099;-64
2023/06/18 06:59:17;;;;;;;11.55;10.65;;;18.70;99.90;;;;;;4940086;28;20485;-64
2023/06/18 07:01:44;;;;;;;12.40;11.07;;;18.60;99.90;;;;;;4934037;28;20031;-68
2023/06/18 07:04:12;;;;;;;11.93;10.85;;;18.80;99.90;;;;;;4941002;28;20058;-66
2023/06/18 07:06:39;;;;;;;12.93;11.73;;;18.80;99.90;;;;;;4941591;28;20090;-65
2023/06/18 07:09:06;;;;;;;13.98;12.05;;;18.70;99.90;;;;;;4939264;28;20475;-64
2023/06/18 07:11:40;;;;;;;14.02;11.88;;;18.80;99.90;;;;;;4935733;28;20043;-64
2023/06/18 07:14:07;;;;;;;13.77;12.32;;;18.80;99.90;;;;;;4943486;28;20130;-64
2023/06/18 07:16:34;;;;;;;14.35;12.82;;;18.80;99.90;;;;;;4944274;28;20139;-63
2023/06/18 07:19:03;;;;;;;12.88;11.57;;;18.90;99.90;;;;;;4940864;28;20850;-65
2023/06/18 07:21:30;;;;;;;14.40;13.13;;;19.00;99.90;;;;;;4947985;28;20047;-66
2023/06/18 07:23:57;;;;;;;15.48;13.98;;;19.10;99.90;;;;;;4942894;28;20048;-67
2023/06/18 07:26:24;;;;;;;15.40;13.63;;;19.10;99.90;;;;;;4940920;28;20075;-65
2023/06/18 07:28:51;;;;;;;17.25;14.43;;;19.10;99.90;;;;;;4944926;28;20059;-66
2023/06/18 07:31:19;;;;;;;17.67;14.95;;;19.00;99.90;;;;;;4945019;28;20106;-67
2023/06/18 07:33:46;;;;;;;16.17;14.13;;;19.00;99.90;;;;;;4938368;28;20071;-66
2023/06/18 07:36:13;;;;;;;14.35;12.90;;;19.10;99.90;;;;;;4941493;28;20557;-66
2023/06/18 07:38:39;;;;;;;19.60;14.65;;;19.20;99.90;;;;;;4946206;28;20152;-66
2023/06/18 07:41:06;;;;;;;15.23;13.57;;;19.30;99.90;;;;;;4944392;28;20051;-64
2023/06/18 07:43:33;;;;;;;16.40;12.07;;;19.30;99.90;;;;;;4940920;28;20101;-66
2023/06/18 07:46:00;;;;;;;16.08;14.38;;;19.40;99.90;;;;;;4942943;28;20036;-65
2023/06/18 07:48:27;;;;;;;15.85;14.23;;;19.50;99.90;;;;;;4939835;28;20493;-64
2023/06/18 07:50:54;;;;;;;19.10;13.70;;;19.60;99.90;;;;;;4942443;28;20122;-67
2023/06/18 07:53:21;;;;;;;16.48;13.57;;;19.60;99.90;;;;;;4944846;28;20146;-65
2023/06/18 07:55:48;;;;;;;17.27;12.80;;;19.70;99.90;;;;;;4945384;28;20050;-64
2023/06/18 07:58:15;;;;;;;18.60;14.98;;;19.70;99.90;;;;;;4941204;28;20044;-65
2023/06/18 08:00:42;;;;;;;15.48;13.23;;;19.80;99.90;;;;;;4941766;28;20553;-66
2023/06/18 08:03:08;;;;;;;14.57;13.13;;;19.80;99.90;;;;;;4944899;28;20521;-66
2023/06/18 08:05:36;;;;;;;15.77;14.25;;;19.80;99.90;;;;;;4945778;28;20047;-64
2023/06/18 08:08:03;;;;;;;14.65;13.07;;;19.90;99.90;;;;;;4942773;28;20047;-68
2023/06/18 08:10:29;;;;;;;17.17;14.75;;;19.90;99.90;;;;;;4940896;28;20136;-65
2023/06/18 08:12:56;;;;;;;16.92;14.98;;;20.00;99.90;;;;;;4945755;28;20078;-64
2023/06/18 08:15:23;;;;;;;17.10;15.45;;;20.10;99.90;;;;;;4946940;28;20043;-67
2023/06/18 08:17:52;;;;;;;17.23;15.80;;;20.10;99.90;;;;;;4946163;28;20043;-66
2023/06/18 08:20:19;;;;;;;15.50;14.00;;;20.20;99.90;;;;;;4942100;28;20106;-65
2023/06/18 08:22:46;;;;;;;15.23;13.55;;;20.30;99.90;;;;;;4938616;28;20098;-69
2023/06/18 08:25:13;;;;;;;15.32;13.93;;;20.40;99.90;;;;;;4942363;28;20043;-66
2023/06/18 08:27:40;;;;;;;17.60;14.10;;;20.40;99.90;;;;;;4942315;28;20102;-66
2023/06/18 08:30:07;;;;;;;15.48;14.05;;;20.50;99.90;;;;;;4940967;28;20110;-66
2023/06/18 08:32:34;;;;;;;14.27;12.85;;;20.70;99.90;;;;;;4939855;28;20618;-65
2023/06/18 08:35:01;;;;;;;14.10;12.85;;;20.70;99.90;;;;;;4941689;28;20097;-68
2023/06/18 08:37:28;;;;;;;14.63;13.32;;;20.80;99.90;;;;;;4942267;28;20153;-65
2023/06/18 08:39:55;;;;;;;14.07;12.57;;;20.90;99.90;;;;;;4944331;28;20043;-64
2023/06/18 08:42:22;;;;;;;14.73;13.43;;;20.80;99.90;;;;;;4939699;28;21715;-65
2023/06/18 08:44:53;;;;;;;14.35;12.85;;;20.80;99.90;;;;;;4939149;28;20050;-67
2023/06/18 08:47:21;;;;;;;14.27;13.05;;;20.90;99.90;;;;;;4946986;28;20150;-65
2023/06/18 08:49:51;;;;;;;15.05;13.50;;;20.90;99.90;;;;;;4947384;28;20812;-69
2023/06/18 08:52:20;;;;;;;15.32;13.55;;;20.90;99.90;;;;;;4935442;28;20048;-68
2023/06/18 08:54:55;;;;;;;15.27;13.93;;;20.90;99.90;;;;;;4941365;28;20095;-66
2023/06/18 08:57:27;;;;;;;15.70;14.18;;;21.00;99.90;;;;;;4938465;28;20449;-64
2023/06/18 08:59:54;;;;;;;13.98;12.68;;;21.00;99.90;;;;;;4937425;28;20071;-67
2023/06/18 09:02:22;;;;;;;14.43;12.88;;;21.00;99.90;;;;;;4940990;28;20051;-67
2023/06/18 09:04:49;;;;;;;14.13;12.88;;;21.10;99.90;;;;;;4940034;28;20127;-66
2023/06/18 09:07:17;;;;;;;14.77;13.43;;;21.10;99.90;;;;;;4940861;28;20376;-67
2023/06/18 09:09:45;;;;;;;14.63;13.13;;;21.10;99.90;;;;;;4942998;28;20639;-68
2023/06/18 09:12:12;;;;;;;14.05;12.82;;;21.20;99.90;;;;;;4955530;28;20052;-65
2023/06/18 09:14:39;;;;;;;15.93;13.35;;;21.30;99.90;;;;;;4944321;28;20461;-65
2023/06/18 09:17:06;;;;;;;15.82;14.20;;;21.60;99.90;;;;;;4940701;28;20047;-66
2023/06/18 09:19:34;;;;;;;15.02;13.63;;;21.80;99.90;;;;;;4944225;28;20039;-64
2023/06/18 09:22:14;;;;;;;14.57;13.07;;;22.00;99.90;;;;;;4934456;28;20043;-66
2023/06/18 09:24:43;;;;;;;13.20;11.82;;;21.90;99.90;;;;;;4947811;28;20149;-66
2023/06/18 09:27:11;;;;;;;16.05;14.55;;;21.90;99.90;;;;;;4937305;28;20047;-68
2023/06/18 09:29:41;;;;;;;13.32;12.00;;;21.80;99.90;;;;;;4942238;28;20109;-66
2023/06/18 09:32:13;;;;;;;13.00;11.80;;;21.70;99.90;;;;;;4937854;28;20043;-68
2023/06/18 09:34:42;;;;;;;15.55;14.00;;;21.80;99.90;;;;;;4943864;28;20043;-65
2023/06/18 09:37:13;;;;;;;15.68;12.73;;;21.90;99.90;;;;;;4939062;28;20056;-65
2023/06/18 09:39:40;;;;;;;13.50;12.23;;;22.10;99.90;;;;;;4937050;28;20710;-66
2023/06/18 09:42:13;;;;;;;15.15;13.50;;;22.10;99.90;;;;;;4940715;28;20094;-69
2023/06/18 09:44:44;;;;;;;13.82;12.55;;;22.10;99.90;;;;;;4941991;28;20066;-67
2023/06/18 09:47:14;;;;;;;14.25;12.68;;;22.00;99.90;;;;;;4938870;28;20058;-66
2023/06/18 09:49:50;;;;;;;13.32;12.05;;;22.10;99.90;;;;;;4957050;28;20606;-65
2023/06/18 09:52:22;;;;;;;14.15;12.75;;;22.00;99.90;;;;;;4941945;28;20054;-68
2023/06/18 09:54:49;;;;;;;16.83;15.02;;;22.00;99.90;;;;;;4958680;28;20074;-66
2023/06/18 09:57:16;;;;;;;15.40;13.90;;;22.00;99.90;;;;;;4939443;28;20109;-66
2023/06/18 09:59:44;;;;;;;15.65;14.13;;;21.90;99.90;;;;;;4941070;28;20090;-69
2023/06/18 10:02:13;;;;;;;15.32;13.88;;;21.60;99.90;;;;;;4941417;28;20051;-68
2023/06/18 10:04:41;;;;;;;14.68;13.07;;;21.40;99.90;;;;;;4938003;28;20050;-67
2023/06/18 10:07:15;;;;;;;15.32;13.95;;;21.40;99.90;;;;;;4941668;28;20098;-65
2023/06/18 10:09:46;;;;;;;15.68;14.13;;;21.30;99.90;;;;;;4933277;28;20100;-71
2023/06/18 10:12:15;;;;;;;17.73;16.10;;;21.30;99.90;;;;;;4936913;28;20118;-66
2023/06/18 10:14:43;;;;;;;17.00;15.40;;;21.30;99.90;;;;;;4942256;28;20408;-67
2023/06/18 10:17:25;;;;;;;16.80;15.25;;;21.30;99.90;;;;;;4938312;28;20047;-66
2023/06/18 10:20:01;;;;;;;16.00;13.68;;;21.20;99.90;;;;;;4939606;28;20039;-67
2023/06/18 10:22:32;;;;;;;14.30;13.00;;;21.30;99.90;;;;;;4934698;28;20062;-65
2023/06/18 10:25:05;;;;;;;15.18;13.85;;;21.20;99.90;;;;;;4938208;28;20047;-64
2023/06/18 10:27:34;;;;;;;17.98;15.68;;;21.00;99.90;;;;;;4940671;28;20048;-65
2023/06/18 10:30:01;;;;;;;19.13;16.27;;;20.90;99.90;;;;;;4940079;28;20040;-66
2023/06/18 10:32:30;;;;;;;16.75;14.85;;;20.90;99.90;;;;;;4935555;28;20051;-65
2023/06/18 10:35:02;;;;;;;16.40;15.00;;;21.00;99.90;;;;;;4942323;28;20038;-68
2023/06/18 10:37:31;;;;;;;19.50;14.98;;;21.10;99.90;;;;;;4939302;28;20066;-65
2023/06/18 10:39:59;;;;;;;15.90;14.52;;;21.10;99.90;;;;;;4941394;28;20061;-68
2023/06/18 10:42:29;;;;;;;17.95;15.55;;;21.10;99.90;;;;;;4939104;28;20055;-66
2023/06/18 10:44:57;;;;;;;;;;;20.90;99.90;;;;;;4940743;28;20043;-64
2023/06/18 10:47:26;;;;;;;17.55;15.88;;;20.80;99.90;;;;;;4940039;28;19931;-65
2023/06/18 10:50:02;;;;;;;15.73;14.43;;;20.90;99.90;;;;;;4945640;28;20071;-65
2023/06/18 10:52:33;;;;;;;17.00;15.27;;;20.90;99.90;;;;;;4944195;28;20039;-66
2023/06/18 10:55:07;;;;;;;15.55;14.07;;;20.90;99.90;;;;;;4939978;28;20477;-68
2023/06/18 10:57:45;;;;;;;16.40;14.95;;;20.90;99.90;;;;;;4944507;28;20497;-65
2023/06/18 11:00:25;;;;;;;15.82;14.48;;;20.80;99.90;;;;;;4938471;28;20049;-69
2023/06/18 11:03:03;;;;;;;14.82;13.07;;;20.80;99.90;;;;;;4938437;28;20052;-65
2023/06/18 11:05:33;;;;;;;15.50;14.10;;;20.80;99.90;;;;;;4945048;28;20054;-68
2023/06/18 11:08:08;;;;;;;13.52;12.23;;;20.70;99.90;;;;;;4942874;28;20049;-65
2023/06/18 11:10:47;;;;;;;16.83;15.32;;;20.70;99.90;;;;;;4940894;28;20498;-65
2023/06/18 11:13:15;;;;;;;16.65;15.30;;;20.70;99.90;;;;;;4945049;28;20466;-65
2023/06/18 11:16:21;;;;;;;17.27;15.48;;;20.60;99.90;;;;;;4943485;28;20107;-71
2023/06/18 11:18:50;;;;;;;26.23;18.42;;;20.60;99.90;;;;;;4921502;29;20079;-68
2023/06/18 11:21:19;;;;;;;24.77;16.70;;;20.60;99.90;;;;;;4922200;29;20143;-67
2023/06/18 11:23:48;;;;;;;18.10;16.08;;;20.60;99.90;;;;;;4939417;28;20503;-65
2023/06/18 11:26:17;;;;;;;18.65;16.98;;;20.60;99.90;;;;;;4942905;28;20050;-67
2023/06/18 11:28:46;;;;;;;19.98;17.88;;;20.60;99.90;;;;;;4942141;28;20051;-66
2023/06/18 11:31:13;;;;;;;20.08;17.52;;;20.60;99.90;;;;;;4944806;28;20071;-66
2023/06/18 11:33:47;;;;;;;17.75;16.05;;;20.60;99.90;;;;;;4935141;28;20047;-65
2023/06/18 11:36:17;;;;;;;20.67;18.60;;;20.40;99.90;;;;;;4944182;28;20047;-65
2023/06/18 11:38:47;;;;;;;18.85;16.92;;;20.40;99.90;;;;;;4941892;28;20035;-69
2023/06/18 11:41:20;;;;;;;19.10;17.25;;;20.50;99.90;;;;;;4942238;28;20044;-67
2023/06/18 11:43:49;;;;;;;19.33;17.40;;;20.40;99.90;;;;;;4941649;28;20505;-69
2023/06/18 11:46:35;;;;;;;16.75;15.15;;;20.30;99.90;;;;;;4944055;28;20043;-66
2023/06/18 11:49:02;;;;;;;16.92;15.32;;;20.30;99.90;;;;;;4940969;28;20040;-68
2023/06/18 11:51:30;;;;;;;17.75;16.00;;;20.20;99.90;;;;;;4944145;28;20273;-69
2023/06/18 11:53:58;;;;;;;16.42;14.90;;;20.20;99.90;;;;;;4938977;28;20047;-65
2023/06/18 11:56:29;;;;;;;16.92;15.32;;;20.10;99.90;;;;;;4945138;28;20055;-69
2023/06/18 11:58:57;;;;;;;18.48;16.58;;;20.00;99.90;;;;;;4939751;28;20071;-65
2023/06/18 12:01:33;;;;;;;14.38;12.98;;;19.90;99.90;;;;;;4943068;28;20055;-65
2023/06/18 12:04:07;;;;;;;16.85;13.13;;;19.70;99.90;;;;;;4943895;28;20089;-67
2023/06/18 12:06:36;;;;;;;15.10;13.05;;;19.40;99.90;;;;;;4942641;28;20150;-65
2023/06/18 12:09:04;;;;;;;13.30;12.07;;;19.20;99.90;;;;;;4942338;28;20482;-67
2023/06/18 12:11:54;;;;;;;15.15;13.73;;;19.10;99.90;;;;;;4938814;28;20063;-66
2023/06/18 12:14:42;;;;;;;15.13;13.63;;;19.00;99.90;;;;;;4939931;28;20062;-65
2023/06/18 12:17:28;;;;;;;15.20;13.77;;;18.80;99.90;;;;;;4943067;28;20640;-65
2023/06/18 12:19:59;;;;;;;20.13;15.48;;;18.70;99.90;;;;;;4945435;28;20066;-66
2023/06/18 12:22:27;;;;;;;17.60;15.90;;;18.50;99.90;;;;;;4943662;28;20047;-65
2023/06/18 12:24:55;;;;;;;16.60;15.10;;;18.40;99.90;;;;;;4941551;28;20079;-67
2023/06/18 12:27:24;;;;;;;17.88;13.65;;;18.30;99.90;;;;;;4960588;28;20150;-67
2023/06/18 12:30:02;;;;;;;17.48;15.10;;;18.30;99.90;;;;;;4939064;28;20036;-64
2023/06/18 12:32:29;;;;;;;21.60;17.33;;;18.30;99.90;;;;;;4941572;28;20047;-65
2023/06/18 12:34:56;;;;;;;17.50;15.57;;;18.30;99.90;;;;;;4939716;28;20043;-66
2023/06/18 12:37:33;;;;;;;16.25;14.73;;;18.30;99.90;;;;;;4946774;28;21113;-70